createdAt,value
2023-04-06T00:01:09.481Z,6.37
2023-04-06T00:03:36.820Z,7.30
2023-04-06T00:06:04.580Z,7.27
2023-04-06T00:08:31.561Z,7.33
2023-04-06T00:10:58.521Z,7.83
2023-04-06T00:13:25.428Z,8.53
2023-04-06T00:15:52.487Z,8.03
2023-04-06T00:18:20.534Z,8.50
2023-04-06T00:20:47.565Z,7.77
2023-04-06T00:23:14.517Z,9.40
2023-04-06T00:25:41.605Z,8.70
2023-04-06T00:28:08.632Z,8.30
2023-04-06T00:30:36.014Z,7.83
2023-04-06T00:33:03.000Z,8.20
2023-04-06T00:35:30.086Z,8.10
2023-04-06T00:37:57.145Z,8.07
2023-04-06T00:40:24.313Z,7.03
2023-04-06T00:42:51.390Z,6.83
2023-04-06T00:45:18.545Z,7.10
2023-04-06T00:47:45.663Z,7.30
2023-04-06T00:50:12.784Z,7.13
2023-04-06T00:52:39.801Z,7.30
2023-04-06T00:55:09.248Z,7.17
2023-04-06T00:57:41.249Z,7.80
2023-04-06T01:00:08.846Z,7.30
2023-04-06T01:02:36.633Z,7.43
2023-04-06T01:05:04.104Z,6.80
2023-04-06T01:07:39.413Z,6.87
2023-04-06T01:10:11.625Z,7.40
2023-04-06T01:12:39.887Z,6.77
2023-04-06T01:15:14.718Z,6.63
2023-04-06T01:17:44.770Z,6.00
2023-04-06T01:20:15.612Z,6.47
2023-04-06T01:22:43.585Z,6.27
2023-04-06T01:25:12.403Z,6.17
2023-04-06T01:27:53.944Z,6.10
2023-04-06T01:30:30.217Z,6.80
2023-04-06T01:33:01.591Z,6.00
2023-04-06T01:35:41.660Z,6.43
2023-04-06T01:38:20.626Z,6.07
2023-04-06T01:40:48.974Z,5.90
2023-04-06T01:43:18.362Z,6.73
2023-04-06T01:46:07.751Z,5.53
2023-04-06T01:48:37.759Z,5.97
2023-04-06T01:51:17.990Z,5.90
2023-04-06T01:53:51.397Z,5.90
2023-04-06T01:56:21.351Z,5.53
2023-04-06T01:59:08.678Z,6.10
2023-04-06T02:01:40.349Z,5.53
2023-04-06T02:04:07.331Z,5.67
2023-04-06T02:06:34.815Z,5.20
2023-04-06T02:09:03.918Z,6.47
2023-04-06T02:11:31.320Z,5.60
2023-04-06T02:13:58.339Z,6.20
2023-04-06T02:16:29.862Z,5.47
2023-04-06T02:18:56.937Z,4.90
2023-04-06T02:21:23.973Z,5.10
2023-04-06T02:23:51.036Z,5.20
2023-04-06T02:26:18.486Z,5.60
2023-04-06T02:28:45.558Z,4.73
2023-04-06T02:31:12.626Z,5.47
2023-04-06T02:33:39.761Z,5.00
2023-04-06T02:36:07.656Z,5.43
2023-04-06T02:38:34.944Z,5.00
2023-04-06T02:41:03.082Z,4.80
2023-04-06T02:43:30.671Z,5.17
2023-04-06T02:46:06.226Z,4.90
2023-04-06T02:48:38.204Z,5.47
2023-04-06T02:51:05.645Z,4.50
2023-04-06T02:53:32.748Z,5.43
2023-04-06T02:56:00.050Z,4.63
2023-04-06T02:58:35.500Z,4.83
2023-04-06T03:01:03.180Z,5.40
2023-04-06T03:03:31.175Z,4.83
2023-04-06T03:06:00.768Z,5.20
2023-04-06T03:08:31.223Z,4.87
2023-04-06T03:10:58.983Z,5.50
2023-04-06T03:13:33.834Z,4.87
2023-04-06T03:16:01.049Z,5.00
2023-04-06T03:18:28.320Z,5.00
2023-04-06T03:20:57.222Z,5.47
2023-04-06T03:23:33.462Z,5.20
2023-04-06T03:26:03.628Z,4.67
2023-04-06T03:28:31.040Z,5.40
2023-04-06T03:31:01.447Z,5.40
2023-04-06T03:33:47.277Z,5.40
2023-04-06T03:36:26.392Z,5.13
2023-04-06T03:38:55.431Z,4.80
2023-04-06T03:41:22.541Z,5.20
2023-04-06T03:44:04.336Z,5.37
2023-04-06T03:46:31.518Z,5.27
2023-04-06T03:48:59.571Z,4.50
2023-04-06T03:51:27.255Z,5.33
2023-04-06T03:53:54.233Z,5.23
2023-04-06T03:56:21.705Z,5.90
2023-04-06T03:58:51.961Z,5.87
2023-04-06T04:01:21.633Z,5.40
2023-04-06T04:03:51.453Z,5.43
2023-04-06T04:06:18.920Z,5.53
2023-04-06T04:08:46.589Z,6.07
2023-04-06T04:11:13.596Z,5.60
2023-04-06T04:13:40.594Z,5.57
2023-04-06T04:16:09.124Z,5.50
2023-04-06T04:18:37.671Z,5.07
2023-04-06T04:21:06.972Z,5.17
2023-04-06T04:23:36.770Z,5.97
2023-04-06T04:26:04.570Z,5.47
2023-04-06T04:28:31.641Z,5.67
2023-04-06T04:30:58.839Z,5.10
2023-04-06T04:33:26.197Z,5.67
2023-04-06T04:35:56.389Z,4.67
2023-04-06T04:38:25.835Z,5.63
2023-04-06T04:40:55.971Z,5.00
2023-04-06T04:43:23.160Z,5.27
2023-04-06T04:45:50.356Z,5.13
2023-04-06T04:48:36.259Z,5.53
2023-04-06T04:51:06.809Z,5.70
2023-04-06T04:53:53.752Z,5.33
2023-04-06T04:56:25.241Z,6.07
2023-04-06T04:58:58.069Z,5.97
2023-04-06T05:01:27.235Z,5.10
2023-04-06T05:03:54.335Z,4.90
2023-04-06T05:06:21.332Z,5.80
2023-04-06T05:08:48.884Z,5.70
2023-04-06T05:11:16.599Z,5.23
2023-04-06T05:13:47.816Z,4.93
2023-04-06T05:16:22.002Z,5.27
2023-04-06T05:18:50.758Z,5.87
2023-04-06T05:21:17.915Z,5.97
2023-04-06T05:24:03.527Z,5.67
2023-04-06T05:26:33.076Z,5.43
2023-04-06T05:29:06.372Z,5.20
2023-04-06T05:31:36.644Z,5.87
2023-04-06T05:34:03.797Z,5.13
2023-04-06T05:36:37.072Z,5.60
2023-04-06T05:39:10.315Z,5.47
2023-04-06T05:41:44.769Z,5.23
2023-04-06T05:44:13.384Z,4.70
2023-04-06T05:46:43.457Z,4.87
2023-04-06T05:49:14.856Z,5.87
2023-04-06T05:51:41.903Z,5.00
2023-04-06T05:54:09.070Z,5.30
2023-04-06T05:56:36.334Z,5.10
2023-04-06T05:59:04.038Z,5.33
2023-04-06T06:01:32.205Z,4.93
2023-04-06T06:04:01.960Z,5.73
2023-04-06T06:06:31.366Z,5.10
2023-04-06T06:09:24.836Z,6.23
2023-04-06T06:12:14.835Z,5.27
2023-04-06T06:14:42.266Z,6.00
2023-04-06T06:17:09.594Z,5.90
2023-04-06T06:19:37.196Z,6.60
2023-04-06T06:22:07.422Z,5.90
2023-04-06T06:24:38.407Z,7.67
2023-04-06T06:27:05.586Z,6.83
2023-04-06T06:29:34.783Z,6.97
2023-04-06T06:32:01.875Z,6.60
2023-04-06T06:34:29.223Z,6.43
2023-04-06T06:36:58.903Z,6.27
2023-04-06T06:39:26.023Z,7.20
2023-04-06T06:41:55.462Z,6.67
2023-04-06T06:44:41.147Z,7.17
2023-04-06T06:47:08.236Z,7.23
2023-04-06T06:49:35.208Z,7.03
2023-04-06T06:52:02.369Z,7.53
2023-04-06T06:54:29.315Z,6.50
2023-04-06T06:56:56.859Z,7.10
2023-04-06T06:59:24.248Z,6.97
2023-04-06T07:01:51.777Z,6.83
2023-04-06T07:04:18.768Z,6.57
2023-04-06T07:06:45.861Z,6.43
2023-04-06T07:09:12.786Z,5.93
2023-04-06T07:11:40.515Z,6.73
2023-04-06T07:14:07.890Z,6.83
2023-04-06T07:16:35.157Z,6.67
2023-04-06T07:19:02.295Z,6.37
2023-04-06T07:21:29.513Z,6.43
2023-04-06T07:23:57.111Z,6.03
2023-04-06T07:26:24.160Z,6.70
2023-04-06T07:28:51.104Z,7.17
2023-04-06T07:31:19.110Z,6.23
2023-04-06T07:33:46.245Z,5.17
2023-04-06T07:36:13.460Z,6.00
2023-04-06T07:38:40.500Z,5.73
2023-04-06T07:41:07.577Z,7.10
2023-04-06T07:43:35.564Z,6.17
2023-04-06T07:46:03.236Z,5.83
2023-04-06T07:48:30.646Z,6.00
2023-04-06T07:51:07.739Z,5.43
2023-04-06T07:53:38.740Z,5.90
2023-04-06T07:56:05.916Z,6.10
2023-04-06T07:58:32.924Z,5.63
2023-04-06T08:01:00.497Z,5.77
2023-04-06T08:03:27.696Z,6.07
2023-04-06T08:05:54.847Z,5.20
2023-04-06T08:08:22.333Z,5.73
2023-04-06T08:10:49.949Z,5.83
2023-04-06T08:13:17.513Z,6.00
2023-04-06T08:15:45.029Z,5.53
2023-04-06T08:18:12.217Z,6.70
2023-04-06T08:20:40.039Z,6.43
2023-04-06T08:23:07.787Z,5.60
2023-04-06T08:25:38.071Z,5.43
2023-04-06T08:28:05.726Z,5.47
2023-04-06T08:30:32.714Z,5.53
2023-04-06T08:32:59.808Z,5.10
2023-04-06T08:35:28.129Z,5.67
2023-04-06T08:37:55.206Z,4.80
2023-04-06T08:40:22.277Z,5.17
2023-04-06T08:42:55.748Z,5.10
2023-04-06T08:45:23.537Z,5.03
2023-04-06T08:47:55.600Z,4.77
2023-04-06T08:50:22.751Z,5.00
2023-04-06T08:52:50.064Z,4.70
2023-04-06T08:55:17.565Z,4.70
2023-04-06T08:57:46.204Z,4.73
2023-04-06T09:00:14.105Z,3.90
2023-04-06T09:02:44.041Z,4.13
2023-04-06T09:05:11.678Z,4.80
2023-04-06T09:07:38.979Z,4.47
2023-04-06T09:10:06.746Z,3.80
2023-04-06T09:12:34.441Z,4.13
2023-04-06T09:15:02.041Z,4.53
2023-04-06T09:17:34.941Z,3.53
2023-04-06T09:20:02.660Z,3.23
2023-04-06T09:22:43.051Z,4.27
2023-04-06T09:25:11.820Z,4.00
2023-04-06T09:27:39.546Z,4.17
2023-04-06T09:30:15.519Z,4.13
2023-04-06T09:32:47.912Z,4.00
2023-04-06T09:35:15.966Z,3.70
2023-04-06T09:37:44.541Z,3.43
2023-04-06T09:40:12.122Z,3.77
2023-04-06T09:42:41.525Z,3.90
2023-04-06T09:45:09.184Z,4.50
2023-04-06T09:47:38.313Z,3.70
2023-04-06T09:50:06.179Z,3.87
2023-04-06T09:52:38.009Z,3.60
2023-04-06T09:55:09.005Z,4.03
2023-04-06T09:57:46.585Z,3.90
2023-04-06T10:00:19.053Z,4.70
2023-04-06T10:02:50.291Z,5.47
2023-04-06T10:05:40.576Z,4.67
2023-04-06T10:08:10.536Z,4.50
2023-04-06T10:10:38.406Z,4.10
2023-04-06T10:13:06.058Z,4.43
2023-04-06T10:15:34.383Z,4.83
2023-04-06T10:18:02.452Z,4.37
2023-04-06T10:20:39.203Z,5.17
2023-04-06T10:23:11.766Z,4.20
2023-04-06T10:25:38.861Z,4.57
2023-04-06T10:28:12.351Z,4.70
2023-04-06T10:30:44.433Z,4.53
2023-04-06T10:33:15.829Z,5.07
2023-04-06T10:35:43.072Z,4.80
2023-04-06T10:38:10.365Z,4.67
2023-04-06T10:40:39.518Z,4.07
2023-04-06T10:43:14.388Z,4.67
2023-04-06T10:45:44.140Z,4.90
2023-04-06T10:48:19.230Z,5.53
2023-04-06T10:50:52.921Z,5.70
2023-04-06T10:53:27.366Z,4.73
2023-04-06T10:55:57.955Z,4.67
2023-04-06T10:58:28.899Z,4.50
2023-04-06T11:00:56.964Z,4.40
2023-04-06T11:03:24.302Z,4.60
2023-04-06T11:05:52.498Z,4.60
2023-04-06T11:08:33.829Z,5.17
2023-04-06T11:11:08.587Z,3.80
2023-04-06T11:13:48.038Z,4.23
2023-04-06T11:16:18.894Z,4.80
2023-04-06T11:18:51.962Z,4.73
2023-04-06T11:21:20.647Z,4.77
2023-04-06T11:23:47.724Z,5.10
2023-04-06T11:26:15.727Z,4.83
2023-04-06T11:28:44.220Z,5.07
2023-04-06T11:31:12.567Z,5.17
2023-04-06T11:33:40.134Z,5.20
2023-04-06T11:36:08.016Z,4.90
2023-04-06T11:38:35.437Z,5.20
2023-04-06T11:41:03.553Z,5.17
2023-04-06T11:43:33.584Z,5.77
2023-04-06T11:46:05.262Z,5.43
2023-04-06T11:48:32.692Z,5.23
2023-04-06T11:51:05.997Z,5.17
2023-04-06T11:53:34.401Z,5.53
2023-04-06T11:56:01.426Z,5.70
2023-04-06T11:58:28.518Z,5.23
2023-04-06T12:01:03.840Z,4.73
2023-04-06T12:03:30.890Z,5.00
2023-04-06T12:05:59.699Z,4.90
2023-04-06T12:08:27.035Z,5.53
2023-04-06T12:10:53.948Z,5.70
2023-04-06T12:13:20.942Z,5.40
2023-04-06T12:15:47.917Z,5.47
2023-04-06T12:18:14.911Z,5.60
2023-04-06T12:20:41.840Z,5.33
2023-04-06T12:23:08.923Z,5.87
2023-04-06T12:25:36.514Z,5.93
2023-04-06T12:28:03.505Z,5.87
2023-04-06T12:30:30.454Z,5.93
2023-04-06T12:32:57.565Z,5.83
2023-04-06T12:35:24.621Z,5.57
2023-04-06T12:37:51.858Z,5.43
2023-04-06T12:40:18.848Z,8.23
2023-04-06T12:42:47.183Z,5.53
2023-04-06T12:45:14.190Z,5.80
2023-04-06T12:47:41.310Z,5.03
2023-04-06T12:50:08.751Z,5.57
2023-04-06T12:52:37.564Z,5.60
2023-04-06T12:55:06.232Z,5.47
2023-04-06T12:57:33.314Z,5.83
2023-04-06T13:00:01.254Z,5.60
2023-04-06T13:02:28.526Z,5.93
2023-04-06T13:04:55.856Z,6.17
2023-04-06T13:07:23.257Z,5.53
2023-04-06T13:09:50.689Z,5.00
2023-04-06T13:12:17.768Z,5.13
2023-04-06T13:14:44.780Z,4.80
2023-04-06T13:17:11.966Z,5.60
2023-04-06T13:19:38.900Z,5.90
2023-04-06T13:22:06.077Z,5.90
2023-04-06T13:24:33.002Z,6.23
2023-04-06T13:27:00.121Z,4.90
2023-04-06T13:29:27.275Z,5.60
2023-04-06T13:31:54.294Z,5.53
2023-04-06T13:34:21.324Z,5.43
2023-04-06T13:36:48.396Z,5.67
2023-04-06T13:39:15.420Z,5.70
2023-04-06T13:41:42.489Z,5.60
2023-04-06T13:44:09.466Z,5.47
2023-04-06T13:46:36.990Z,5.90
2023-04-06T13:49:03.938Z,5.77
2023-04-06T13:51:31.868Z,5.83
2023-04-06T13:53:58.772Z,5.67
2023-04-06T13:56:25.895Z,5.93
2023-04-06T13:58:56.750Z,5.93
2023-04-06T14:01:23.893Z,5.10
2023-04-06T14:03:51.112Z,5.00
2023-04-06T14:08:48.338Z,5.17
2023-04-06T14:11:15.740Z,5.07
2023-04-06T14:13:43.150Z,5.87
2023-04-06T14:16:10.319Z,5.27
2023-04-06T14:18:38.034Z,5.57
2023-04-06T14:21:05.138Z,5.30
2023-04-06T14:23:34.009Z,5.60
2023-04-06T14:26:09.344Z,5.53
2023-04-06T14:28:37.441Z,5.83
2023-04-06T14:31:12.741Z,5.47
2023-04-06T14:33:40.987Z,6.13
2023-04-06T14:36:08.877Z,5.40
2023-04-06T14:38:36.641Z,4.97
2023-04-06T14:41:03.560Z,5.20
2023-04-06T14:43:30.865Z,5.80
2023-04-06T14:46:01.850Z,5.50
2023-04-06T14:48:29.432Z,5.43
2023-04-06T14:50:57.471Z,5.70
2023-04-06T14:53:25.498Z,6.13
2023-04-06T14:55:52.467Z,4.87
2023-04-06T14:58:20.466Z,5.10
2023-04-06T15:00:47.925Z,5.20
2023-04-06T15:03:15.542Z,5.00
2023-04-06T15:05:43.266Z,5.13
2023-04-06T15:08:10.666Z,4.63
2023-04-06T15:10:37.625Z,6.00
2023-04-06T15:13:04.721Z,6.03
2023-04-06T15:15:31.864Z,5.37
2023-04-06T15:17:58.972Z,5.37
2023-04-06T15:20:25.937Z,5.57
2023-04-06T15:22:52.862Z,5.53
2023-04-06T15:25:19.784Z,5.43
2023-04-06T15:27:46.722Z,5.43
2023-04-06T15:30:14.070Z,5.30
2023-04-06T15:32:41.282Z,5.13
2023-04-06T15:35:12.673Z,5.30
2023-04-06T15:37:39.996Z,5.50
2023-04-06T15:40:07.968Z,4.80
2023-04-06T15:42:34.914Z,5.27
2023-04-06T15:45:01.870Z,5.30
2023-04-06T15:47:28.823Z,4.90
2023-04-06T15:49:55.761Z,5.10
2023-04-06T15:52:23.741Z,4.67
2023-04-06T15:54:50.797Z,4.80
2023-04-06T15:57:17.819Z,4.77
2023-04-06T15:59:44.964Z,4.90
2023-04-06T16:02:11.997Z,4.97
2023-04-06T16:04:39.103Z,5.10
2023-04-06T16:07:06.163Z,5.57
2023-04-06T16:09:33.038Z,5.20
2023-04-06T16:11:59.982Z,5.50
2023-04-06T16:14:26.923Z,5.10
2023-04-06T16:16:54.955Z,4.90
2023-04-06T16:19:21.843Z,4.40
2023-04-06T16:21:48.865Z,4.83
2023-04-06T16:24:16.021Z,4.80
2023-04-06T16:26:44.382Z,4.97
2023-04-06T16:29:11.589Z,4.47
2023-04-06T16:31:38.793Z,4.60
2023-04-06T16:34:05.787Z,4.17
2023-04-06T16:36:34.002Z,4.60
2023-04-06T16:39:02.253Z,4.30
2023-04-06T16:41:29.277Z,4.37
2023-04-06T16:43:57.584Z,4.93
2023-04-06T16:46:31.392Z,4.93
2023-04-06T16:49:02.506Z,4.50
2023-04-06T16:51:30.139Z,4.87
2023-04-06T16:53:56.976Z,4.83
2023-04-06T16:56:24.054Z,5.33
2023-04-06T16:58:51.178Z,4.70
2023-04-06T17:01:22.944Z,4.93
2023-04-06T17:03:50.446Z,4.83
2023-04-06T17:06:17.833Z,5.03
2023-04-06T17:08:47.065Z,5.00
2023-04-06T17:11:18.654Z,4.87
2023-04-06T17:13:49.800Z,5.03
2023-04-06T17:16:16.821Z,5.00
2023-04-06T17:18:43.775Z,4.67
2023-04-06T17:21:14.339Z,4.23
2023-04-06T17:23:41.772Z,4.70
2023-04-06T17:26:08.957Z,4.90
2023-04-06T17:28:36.175Z,5.17
2023-04-06T17:31:07.361Z,4.50
2023-04-06T17:33:35.374Z,4.73
2023-04-06T17:36:03.193Z,5.00
2023-04-06T17:38:30.593Z,5.27
2023-04-06T17:40:57.800Z,5.03
2023-04-06T17:43:24.776Z,4.93
2023-04-06T17:45:52.138Z,4.43
2023-04-06T17:48:19.571Z,4.90
2023-04-06T17:50:46.462Z,5.30
2023-04-06T17:53:13.633Z,4.83
2023-04-06T17:55:40.522Z,4.97
2023-04-06T17:58:07.485Z,4.97
2023-04-06T18:00:34.569Z,4.87
2023-04-06T18:03:02.070Z,5.00
2023-04-06T18:05:29.168Z,5.07
2023-04-06T18:07:57.119Z,4.80
2023-04-06T18:10:24.704Z,4.33
2023-04-06T18:12:51.677Z,5.23
2023-04-06T18:15:18.642Z,5.53
2023-04-06T18:17:47.152Z,5.17
2023-04-06T18:20:15.811Z,5.93
2023-04-06T18:22:43.240Z,5.40
2023-04-06T18:25:10.412Z,4.60
2023-04-06T18:27:37.394Z,3.83
2023-04-06T18:30:05.060Z,4.70
2023-04-06T18:32:32.054Z,4.63
2023-04-06T18:34:59.306Z,5.57
2023-04-06T18:37:26.709Z,5.00
2023-04-06T18:39:54.660Z,4.90
2023-04-06T18:42:21.686Z,6.03
2023-04-06T18:44:48.813Z,5.60
2023-04-06T18:47:16.136Z,5.20
2023-04-06T18:49:43.091Z,5.57
2023-04-06T18:52:10.098Z,5.70
2023-04-06T18:54:37.126Z,5.43
2023-04-06T18:57:04.881Z,5.80
2023-04-06T18:59:31.908Z,6.33
2023-04-06T19:01:59.348Z,5.83
2023-04-06T19:04:26.991Z,5.60
2023-04-06T19:06:55.408Z,6.53
2023-04-06T19:09:22.325Z,6.47
2023-04-06T19:11:49.238Z,8.17
2023-04-06T19:14:16.289Z,7.67
2023-04-06T19:16:51.895Z,7.87
2023-04-06T19:19:19.648Z,7.93
2023-04-06T19:21:46.710Z,7.07
2023-04-06T19:24:13.740Z,6.20
2023-04-06T19:26:42.499Z,5.43
2023-04-06T19:29:10.496Z,6.33
2023-04-06T19:31:37.440Z,7.93
2023-04-06T19:34:04.971Z,9.20
2023-04-06T19:36:32.445Z,8.20
2023-04-06T19:38:59.864Z,6.63
2023-04-06T19:41:27.418Z,7.97
2023-04-06T19:43:54.444Z,6.30
2023-04-06T19:46:21.649Z,8.77
2023-04-06T19:48:48.848Z,8.60
2023-04-06T19:51:16.140Z,7.87
2023-04-06T19:53:43.185Z,8.60
2023-04-06T19:56:10.373Z,8.43
2023-04-06T19:58:38.595Z,8.50
2023-04-06T20:01:05.658Z,7.30
2023-04-06T20:03:33.508Z,7.47
2023-04-06T20:06:00.843Z,7.47
2023-04-06T20:08:29.848Z,6.50
2023-04-06T20:11:04.942Z,6.87
2023-04-06T20:13:31.967Z,6.23
2023-04-06T20:15:59.016Z,6.70
2023-04-06T20:18:26.601Z,6.20
2023-04-06T20:20:54.555Z,7.27
2023-04-06T20:23:21.566Z,6.90
2023-04-06T20:25:48.578Z,7.40
2023-04-06T20:28:16.259Z,7.83
2023-04-06T20:30:43.286Z,8.70
2023-04-06T20:33:10.430Z,8.70
2023-04-06T20:35:37.353Z,8.23
2023-04-06T20:38:04.301Z,7.93
2023-04-06T20:40:31.322Z,8.10
2023-04-06T20:42:58.862Z,8.23
2023-04-06T20:45:25.930Z,9.47
2023-04-06T20:47:53.891Z,9.97
2023-04-06T20:50:24.446Z,9.13
2023-04-06T20:52:51.403Z,10.77
2023-04-06T20:55:18.630Z,10.90
2023-04-06T20:57:46.383Z,13.63
2023-04-06T21:00:13.506Z,12.63
2023-04-06T21:02:41.348Z,11.53
2023-04-06T21:05:09.476Z,10.27
2023-04-06T21:07:37.741Z,10.00
2023-04-06T21:10:06.161Z,8.77
2023-04-06T21:12:33.192Z,10.03
2023-04-06T21:15:00.156Z,10.60
2023-04-06T21:17:27.145Z,11.73
2023-04-06T21:19:54.045Z,11.50
2023-04-06T21:22:20.995Z,9.43
2023-04-06T21:24:47.907Z,11.23
2023-04-06T21:27:14.990Z,11.37
2023-04-06T21:29:41.858Z,10.77
2023-04-06T21:32:08.867Z,10.77
2023-04-06T21:34:35.803Z,10.10
2023-04-06T21:37:02.786Z,11.23
2023-04-06T21:39:29.772Z,9.60
2023-04-06T21:41:57.228Z,11.47
2023-04-06T21:44:24.413Z,10.33
2023-04-06T21:46:51.448Z,10.73
2023-04-06T21:49:18.386Z,10.03
2023-04-06T21:51:45.830Z,10.03
2023-04-06T21:54:12.831Z,11.03
2023-04-06T21:56:39.778Z,10.03
2023-04-06T21:59:06.684Z,9.30
2023-04-06T22:01:33.816Z,9.63
2023-04-06T22:04:02.233Z,10.33
2023-04-06T22:06:30.094Z,10.40
2023-04-06T22:08:58.218Z,12.00
2023-04-06T22:11:25.700Z,9.50
2023-04-06T22:13:52.804Z,10.67
2023-04-06T22:16:19.815Z,10.30
2023-04-06T22:18:46.813Z,9.90
2023-04-06T22:21:13.776Z,10.67
2023-04-06T22:23:42.475Z,9.80
2023-04-06T22:26:11.261Z,9.90
2023-04-06T22:28:38.326Z,10.57
2023-04-06T22:31:05.421Z,9.63
2023-04-06T22:33:32.318Z,10.07
2023-04-06T22:35:59.446Z,10.17
2023-04-06T22:38:26.560Z,11.17
2023-04-06T22:40:53.593Z,9.90
2023-04-06T22:43:20.526Z,10.17
2023-04-06T22:45:47.500Z,10.70
2023-04-06T22:48:14.458Z,10.23
2023-04-06T22:50:41.563Z,11.40
2023-04-06T22:53:08.489Z,8.67
2023-04-06T22:55:35.422Z,10.37
2023-04-06T22:58:02.293Z,10.00
2023-04-06T23:00:29.369Z,10.87
2023-04-06T23:02:56.392Z,10.97
2023-04-06T23:05:23.585Z,10.97
2023-04-06T23:07:51.541Z,10.57
2023-04-06T23:10:20.360Z,9.87
2023-04-06T23:12:48.404Z,11.20
2023-04-06T23:15:15.810Z,11.13
2023-04-06T23:17:42.761Z,10.80
2023-04-06T23:20:09.956Z,10.63
2023-04-06T23:22:36.975Z,11.50
2023-04-06T23:25:04.183Z,10.77
2023-04-06T23:27:31.152Z,8.80
2023-04-06T23:29:58.090Z,9.97
2023-04-06T23:32:25.539Z,8.70
2023-04-06T23:34:52.511Z,9.57
2023-04-06T23:37:19.482Z,9.10
2023-04-06T23:39:48.380Z,8.87
2023-04-06T23:42:15.959Z,9.50
2023-04-06T23:44:43.091Z,9.23
2023-04-06T23:47:10.753Z,8.33
2023-04-06T23:49:37.887Z,7.77
2023-04-06T23:52:04.775Z,7.63
2023-04-06T23:54:31.727Z,7.33
2023-04-06T23:56:58.732Z,7.77
2023-04-06T23:59:25.812Z,7.83
